createdAt,value
2019-03-17T00:02:15.492Z,1.07
2019-03-17T00:04:43.982Z,0.80
2019-03-17T00:07:12.482Z,1.10
2019-03-17T00:09:41.011Z,1.20
2019-03-17T00:12:09.441Z,0.78
2019-03-17T00:14:37.904Z,1.52
2019-03-17T00:17:06.393Z,1.30
2019-03-17T00:19:34.778Z,1.22
2019-03-17T00:22:03.212Z,1.10
2019-03-17T00:24:31.698Z,1.07
2019-03-17T00:27:00.123Z,0.70
2019-03-17T00:29:28.565Z,1.30
2019-03-17T00:31:57.004Z,1.40
2019-03-17T00:34:25.486Z,1.00
2019-03-17T00:36:53.953Z,1.27
2019-03-17T00:39:22.391Z,1.12
2019-03-17T00:41:50.839Z,0.70
2019-03-17T00:44:19.310Z,1.20
2019-03-17T00:46:49.253Z,1.30
2019-03-17T00:49:17.676Z,1.12
2019-03-17T00:51:46.171Z,1.02
2019-03-17T00:54:14.593Z,0.95
2019-03-17T00:56:43.089Z,1.05
2019-03-17T00:59:11.540Z,1.32
2019-03-17T01:01:40.065Z,1.10
2019-03-17T01:04:08.617Z,0.90
2019-03-17T01:06:37.066Z,1.22
2019-03-17T01:09:06.072Z,1.20
2019-03-17T01:11:34.526Z,1.30
2019-03-17T01:14:03.004Z,1.02
2019-03-17T01:16:31.508Z,1.07
2019-03-17T01:18:59.948Z,1.12
2019-03-17T01:21:28.452Z,1.00
2019-03-17T01:23:56.914Z,0.98
2019-03-17T01:26:25.437Z,0.62
2019-03-17T01:28:53.892Z,0.80
2019-03-17T01:31:22.371Z,0.78
2019-03-17T01:33:50.916Z,0.75
2019-03-17T01:36:19.458Z,1.12
2019-03-17T01:38:47.908Z,1.45
2019-03-17T01:41:16.356Z,1.10
2019-03-17T01:43:44.801Z,1.52
2019-03-17T01:46:13.250Z,1.20
2019-03-17T01:48:41.766Z,1.07
2019-03-17T01:51:10.292Z,1.10
2019-03-17T01:53:38.756Z,1.35
2019-03-17T01:56:07.177Z,1.25
2019-03-17T01:58:35.643Z,0.95
2019-03-17T02:01:04.230Z,1.00
2019-03-17T02:03:32.652Z,1.05
2019-03-17T02:06:01.120Z,1.20
2019-03-17T02:08:29.682Z,1.20
2019-03-17T02:10:58.131Z,1.00
2019-03-17T02:13:26.559Z,1.10
2019-03-17T02:15:55.061Z,1.07
2019-03-17T02:18:23.492Z,1.30
2019-03-17T02:20:51.950Z,1.27
2019-03-17T02:23:20.396Z,1.37
2019-03-17T02:25:48.911Z,1.10
2019-03-17T02:28:17.433Z,1.25
2019-03-17T02:30:45.844Z,1.20
2019-03-17T02:33:14.287Z,1.50
2019-03-17T02:35:42.755Z,1.20
2019-03-17T02:38:11.240Z,1.20
2019-03-17T02:40:39.691Z,1.40
2019-03-17T02:43:08.334Z,1.17
2019-03-17T02:45:36.788Z,1.80
2019-03-17T02:48:05.268Z,1.17
2019-03-17T02:50:33.750Z,1.00
2019-03-17T02:53:02.202Z,1.02
2019-03-17T02:55:30.657Z,0.98
2019-03-17T02:57:59.133Z,1.22
2019-03-17T03:00:27.680Z,0.90
2019-03-17T03:02:56.132Z,0.95
2019-03-17T03:05:24.558Z,1.05
2019-03-17T03:07:53.093Z,0.93
2019-03-17T03:10:21.543Z,0.60
2019-03-17T03:12:50.312Z,1.30
2019-03-17T03:15:18.749Z,1.30
2019-03-17T03:17:47.224Z,1.02
2019-03-17T03:20:15.753Z,0.75
2019-03-17T03:22:44.217Z,1.40
2019-03-17T03:25:13.050Z,1.25
2019-03-17T03:27:41.447Z,1.17
2019-03-17T03:30:11.839Z,0.88
2019-03-17T03:32:40.252Z,0.60
2019-03-17T03:35:09.705Z,0.95
2019-03-17T03:37:38.148Z,0.90
2019-03-17T03:40:11.276Z,1.10
2019-03-17T03:42:39.791Z,1.07
2019-03-17T03:45:10.561Z,0.60
2019-03-17T03:47:39.044Z,1.20
2019-03-17T03:50:09.344Z,1.10
2019-03-17T03:52:37.777Z,1.07
2019-03-17T03:55:07.566Z,1.00
2019-03-17T03:57:36.046Z,1.07
2019-03-17T04:00:15.671Z,1.20
2019-03-17T04:02:44.416Z,0.90
2019-03-17T04:05:12.871Z,0.80
2019-03-17T04:07:41.308Z,1.35
2019-03-17T04:10:10.985Z,1.12
2019-03-17T04:12:39.475Z,1.00
2019-03-17T04:15:09.870Z,0.85
2019-03-17T04:17:38.395Z,1.32
2019-03-17T04:20:08.874Z,1.00
2019-03-17T04:22:37.660Z,1.25
2019-03-17T04:25:07.676Z,1.20
2019-03-17T04:27:36.091Z,1.20
2019-03-17T04:30:06.715Z,1.10
2019-03-17T04:32:35.159Z,1.02
2019-03-17T04:35:05.034Z,0.80
2019-03-17T04:37:33.471Z,1.30
2019-03-17T04:40:02.026Z,1.37
2019-03-17T04:42:30.513Z,0.90
2019-03-17T04:44:58.968Z,0.80
2019-03-17T04:47:27.398Z,1.00
2019-03-17T04:49:55.859Z,0.95
2019-03-17T04:52:24.373Z,1.02
2019-03-17T04:54:52.838Z,1.12
2019-03-17T04:57:21.271Z,1.05
2019-03-17T04:59:49.714Z,1.70
2019-03-17T05:02:18.141Z,1.45
2019-03-17T05:04:46.735Z,1.37
2019-03-17T05:07:15.197Z,0.78
2019-03-17T05:09:43.631Z,1.52
2019-03-17T05:12:12.076Z,1.27
2019-03-17T05:14:40.504Z,1.47
2019-03-17T05:17:08.961Z,1.22
2019-03-17T05:19:37.400Z,1.47
2019-03-17T05:22:05.877Z,0.95
2019-03-17T05:24:34.310Z,0.70
2019-03-17T05:27:03.068Z,1.25
2019-03-17T05:29:31.530Z,0.98
2019-03-17T05:31:59.952Z,1.50
2019-03-17T05:34:28.437Z,1.20
2019-03-17T05:37:05.995Z,1.50
2019-03-17T05:39:27.063Z,1.02
2019-03-17T05:41:55.579Z,1.20
2019-03-17T05:44:24.111Z,1.10
2019-03-17T05:46:52.581Z,1.30
2019-03-17T05:49:21.057Z,1.27
2019-03-17T05:51:49.493Z,0.95
2019-03-17T05:54:17.957Z,0.75
2019-03-17T05:56:46.446Z,1.32
2019-03-17T05:59:14.886Z,1.00
2019-03-17T06:01:43.344Z,1.70
2019-03-17T06:04:11.852Z,0.90
2019-03-17T06:06:40.431Z,1.10
2019-03-17T06:09:09.298Z,0.70
2019-03-17T06:11:37.885Z,1.47
2019-03-17T06:14:06.306Z,1.30
2019-03-17T06:16:34.765Z,1.00
2019-03-17T06:19:03.220Z,1.30
2019-03-17T06:21:31.669Z,1.40
2019-03-17T06:24:00.162Z,1.00
2019-03-17T06:26:28.958Z,1.30
2019-03-17T06:28:57.389Z,0.90
2019-03-17T06:31:25.835Z,1.20
2019-03-17T06:33:54.336Z,1.20
2019-03-17T06:36:22.759Z,1.30
2019-03-17T06:38:51.208Z,0.70
2019-03-17T06:41:19.648Z,0.70
2019-03-17T06:43:48.114Z,0.82
2019-03-17T06:46:16.612Z,0.90
2019-03-17T06:48:45.030Z,0.80
2019-03-17T06:51:13.499Z,1.35
2019-03-17T06:53:41.922Z,0.93
2019-03-17T06:56:10.537Z,0.57
2019-03-17T06:58:38.964Z,1.15
2019-03-17T07:01:07.512Z,0.80
2019-03-17T07:03:35.969Z,0.90
2019-03-17T07:06:04.477Z,1.20
2019-03-17T07:08:32.972Z,1.10
2019-03-17T07:11:01.783Z,0.90
2019-03-17T07:13:32.476Z,0.75
2019-03-17T07:16:01.438Z,0.80
2019-03-17T07:18:29.957Z,1.02
2019-03-17T07:20:58.680Z,1.47
2019-03-17T07:23:27.815Z,0.90
2019-03-17T07:25:56.335Z,0.82
2019-03-17T07:28:35.919Z,1.02
2019-03-17T07:31:04.467Z,0.85
2019-03-17T07:33:33.039Z,1.02
2019-03-17T07:36:08.380Z,1.17
2019-03-17T07:38:37.633Z,1.60
2019-03-17T07:41:06.092Z,1.02
2019-03-17T07:43:34.501Z,1.17
2019-03-17T07:46:06.028Z,1.20
2019-03-17T07:48:34.475Z,0.98
2019-03-17T07:51:02.923Z,0.90
2019-03-17T07:53:31.497Z,1.35
2019-03-17T07:55:59.937Z,0.80
2019-03-17T07:58:28.406Z,0.85
2019-03-17T08:00:56.948Z,0.78
2019-03-17T08:03:25.401Z,1.20
2019-03-17T08:05:53.847Z,1.00
2019-03-17T08:08:22.371Z,0.65
2019-03-17T08:10:50.827Z,0.65
2019-03-17T08:13:26.534Z,0.75
2019-03-17T08:15:55.049Z,0.70
2019-03-17T08:18:23.581Z,0.95
2019-03-17T08:20:52.076Z,0.57
2019-03-17T08:23:20.635Z,0.93
2019-03-17T08:25:49.071Z,0.40
2019-03-17T08:28:17.524Z,0.57
2019-03-17T08:30:52.938Z,0.62
2019-03-17T08:33:16.121Z,0.70
2019-03-17T08:35:44.579Z,0.95
2019-03-17T08:38:21.813Z,0.60
2019-03-17T08:40:43.256Z,0.78
2019-03-17T08:43:11.680Z,0.93
2019-03-17T08:45:40.312Z,0.80
2019-03-17T08:48:08.822Z,0.60
2019-03-17T08:50:37.301Z,0.80
2019-03-17T08:53:05.800Z,0.65
2019-03-17T08:55:34.255Z,0.50
2019-03-17T08:58:02.764Z,0.50
2019-03-17T09:00:31.303Z,0.70
2019-03-17T09:02:59.749Z,0.85
2019-03-17T09:05:28.267Z,0.30
2019-03-17T09:07:56.833Z,0.25
2019-03-17T09:10:25.268Z,0.20
2019-03-17T09:12:53.722Z,0.30
2019-03-17T09:15:22.226Z,0.30
2019-03-17T09:17:50.779Z,0.25
2019-03-17T09:20:19.212Z,0.20
2019-03-17T09:22:47.642Z,0.20
2019-03-17T09:25:16.137Z,0.40
2019-03-17T09:27:44.587Z,0.30
2019-03-17T09:30:17.724Z,0.15
2019-03-17T09:32:46.171Z,0.20
2019-03-17T09:35:14.610Z,0.55
2019-03-17T09:37:43.268Z,0.30
2019-03-17T09:40:14.058Z,0.20
2019-03-17T09:42:42.480Z,0.30
2019-03-17T09:45:15.419Z,0.40
2019-03-17T09:47:43.921Z,0.33
2019-03-17T09:50:15.003Z,0.30
2019-03-17T09:52:43.399Z,0.15
2019-03-17T09:55:11.962Z,0.40
2019-03-17T09:57:40.391Z,0.10
2019-03-17T10:00:17.106Z,0.37
2019-03-17T10:02:45.544Z,0.50
2019-03-17T10:05:14.913Z,0.23
2019-03-17T10:07:43.347Z,0.20
2019-03-17T10:10:17.826Z,0.50
2019-03-17T10:12:48.434Z,0.30
2019-03-17T10:15:21.065Z,0.30
2019-03-17T10:17:49.693Z,0.37
2019-03-17T10:20:19.403Z,0.60
2019-03-17T10:22:47.979Z,0.28
2019-03-17T10:25:16.521Z,0.20
2019-03-17T10:27:45.040Z,0.20
2019-03-17T10:30:18.595Z,0.20
2019-03-17T10:32:47.026Z,0.40
2019-03-17T10:35:15.532Z,0.30
2019-03-17T10:37:43.973Z,0.15
2019-03-17T10:40:16.998Z,0.30
2019-03-17T10:42:45.393Z,0.20
2019-03-17T10:45:14.449Z,0.40
2019-03-17T10:47:43.002Z,0.40
2019-03-17T10:50:19.322Z,0.45
2019-03-17T10:52:47.717Z,0.30
2019-03-17T10:55:16.178Z,0.20
2019-03-17T10:57:44.643Z,0.30
2019-03-17T11:00:17.320Z,0.40
2019-03-17T11:02:45.754Z,0.40
2019-03-17T11:05:15.933Z,0.45
2019-03-17T11:07:44.452Z,0.62
2019-03-17T11:10:14.026Z,0.47
2019-03-17T11:12:42.614Z,1.00
2019-03-17T11:15:19.184Z,0.50
2019-03-17T11:17:47.594Z,0.37
2019-03-17T11:20:16.528Z,0.28
2019-03-17T11:22:44.950Z,0.88
2019-03-17T11:25:18.231Z,0.70
2019-03-17T11:27:46.666Z,0.70
2019-03-17T11:30:18.720Z,0.53
2019-03-17T11:32:47.343Z,0.40
2019-03-17T11:35:15.867Z,0.40
2019-03-17T11:37:44.320Z,0.53
2019-03-17T11:40:17.908Z,0.68
2019-03-17T11:42:49.547Z,0.50
2019-03-17T11:45:17.245Z,0.50
2019-03-17T11:47:45.767Z,0.50
2019-03-17T11:50:23.045Z,0.65
2019-03-17T11:52:51.855Z,0.30
2019-03-17T11:55:20.315Z,0.40
2019-03-17T11:57:48.798Z,0.30
2019-03-17T12:00:18.088Z,0.50
2019-03-17T12:02:46.528Z,0.70
2019-03-17T12:05:15.220Z,0.30
2019-03-17T12:07:43.718Z,0.40
2019-03-17T12:10:19.065Z,0.50
2019-03-17T12:12:47.515Z,0.50
2019-03-17T12:15:20.695Z,0.65
2019-03-17T12:17:49.257Z,0.60
2019-03-17T12:20:17.769Z,0.40
2019-03-17T12:22:46.388Z,0.47
2019-03-17T12:25:16.163Z,0.80
2019-03-17T12:27:44.955Z,0.60
2019-03-17T12:30:16.455Z,0.50
2019-03-17T12:32:44.884Z,0.70
2019-03-17T12:35:13.571Z,0.50
2019-03-17T12:37:42.049Z,0.53
2019-03-17T12:40:10.483Z,0.50
2019-03-17T12:42:38.928Z,0.37
2019-03-17T12:45:08.897Z,0.62
2019-03-17T12:47:37.627Z,0.40
2019-03-17T12:50:11.878Z,0.55
2019-03-17T12:52:40.358Z,0.80
2019-03-17T12:55:09.594Z,0.50
2019-03-17T12:57:38.042Z,0.70
2019-03-17T13:00:21.430Z,0.50
2019-03-17T13:02:49.894Z,0.80
2019-03-17T20:34:21.637Z,0.70
2019-03-17T20:36:50.109Z,0.72
2019-03-17T20:39:18.564Z,0.70
2019-03-17T20:41:47.023Z,0.78
2019-03-17T20:44:15.478Z,0.50
2019-03-17T20:46:43.908Z,0.50
2019-03-17T20:49:12.443Z,0.50
2019-03-17T20:51:41.058Z,0.40
2019-03-17T20:54:09.506Z,0.70
2019-03-17T20:56:38.038Z,0.50
2019-03-17T20:59:06.499Z,0.55
2019-03-17T21:01:34.944Z,0.65
2019-03-17T21:04:03.444Z,0.57
2019-03-17T21:06:31.883Z,0.62
2019-03-17T21:09:00.331Z,0.60
2019-03-17T21:11:28.767Z,0.80
2019-03-17T21:13:57.310Z,0.88
2019-03-17T21:16:25.747Z,1.07
2019-03-17T21:18:54.282Z,0.93
2019-03-17T21:21:22.812Z,0.80
2019-03-17T21:23:51.532Z,1.35
2019-03-17T21:26:20.096Z,1.30
2019-03-17T21:28:48.598Z,1.32
2019-03-17T21:31:17.269Z,0.98
2019-03-17T21:33:48.805Z,0.93
2019-03-17T21:36:17.391Z,1.30
2019-03-17T21:38:46.739Z,1.07
2019-03-17T21:41:15.205Z,1.07
2019-03-17T21:43:44.852Z,0.90
2019-03-17T21:46:13.433Z,0.78
2019-03-17T21:48:41.863Z,0.80
2019-03-17T21:51:10.314Z,1.20
2019-03-17T21:53:38.773Z,0.78
2019-03-17T21:56:07.286Z,0.78
2019-03-17T21:58:35.784Z,0.95
2019-03-17T22:01:04.253Z,1.50
2019-03-17T22:03:34.190Z,0.65
2019-03-17T22:06:02.628Z,0.65
2019-03-17T22:08:31.287Z,0.70
2019-03-17T22:10:59.798Z,1.10
2019-03-17T22:13:28.460Z,0.60
2019-03-17T22:15:57.133Z,0.98
2019-03-17T22:18:25.623Z,0.68
2019-03-17T22:20:54.086Z,1.02
2019-03-17T22:23:22.547Z,0.90
2019-03-17T22:25:50.990Z,1.05
2019-03-17T22:28:19.841Z,0.70
2019-03-17T22:30:48.484Z,0.60
2019-03-17T22:33:17.006Z,0.90
2019-03-17T22:35:45.485Z,0.65
2019-03-17T22:38:13.923Z,0.90
2019-03-17T22:40:42.394Z,1.00
2019-03-17T22:43:10.936Z,0.90
2019-03-17T22:45:39.374Z,1.02
2019-03-17T22:48:07.871Z,0.85
2019-03-17T22:50:36.432Z,0.90
2019-03-17T22:53:05.003Z,0.70
2019-03-17T22:55:33.529Z,0.70
2019-03-17T22:58:01.969Z,0.62
2019-03-17T23:00:34.797Z,1.00
2019-03-17T23:03:03.488Z,0.60
2019-03-17T23:05:32.114Z,0.78
2019-03-17T23:08:00.504Z,1.37
2019-03-17T23:10:28.982Z,1.15
2019-03-17T23:12:57.406Z,1.57
2019-03-17T23:15:25.844Z,0.70
2019-03-17T23:17:54.279Z,1.30
2019-03-17T23:20:22.756Z,1.30
2019-03-17T23:22:51.193Z,1.00
2019-03-17T23:25:19.693Z,1.00
2019-03-17T23:27:48.404Z,1.22
2019-03-17T23:30:18.951Z,1.02
2019-03-17T23:32:49.152Z,1.75
2019-03-17T23:35:18.241Z,1.47
2019-03-17T23:37:46.865Z,1.42
2019-03-17T23:40:16.535Z,1.55
2019-03-17T23:42:45.156Z,1.25
2019-03-17T23:45:14.520Z,1.00
2019-03-17T23:47:43.168Z,1.87
2019-03-17T23:50:15.189Z,0.88
2019-03-17T23:52:43.960Z,1.05
2019-03-17T23:55:14.625Z,0.90
2019-03-17T23:57:43.135Z,1.60
